createdAt,value
2024-02-09T00:00:31.060Z,8.95
2024-02-09T00:03:36.993Z,8.88
2024-02-09T00:06:41.467Z,8.96
2024-02-09T00:09:44.797Z,8.85
2024-02-09T00:12:49.657Z,8.79
2024-02-09T00:15:54.861Z,8.79
2024-02-09T00:18:59.275Z,8.75
2024-02-09T00:22:02.669Z,8.76
2024-02-09T00:25:10.092Z,8.66
2024-02-09T00:28:13.796Z,8.72
2024-02-09T00:31:16.928Z,8.73
2024-02-09T00:34:22.750Z,8.64
2024-02-09T00:37:28.028Z,8.70
2024-02-09T00:40:32.960Z,8.71
2024-02-09T00:43:36.237Z,8.75
2024-02-09T00:46:43.764Z,8.71
2024-02-09T00:49:47.479Z,8.71
2024-02-09T00:52:54.071Z,8.76
2024-02-09T00:55:57.002Z,8.79
2024-02-09T00:59:00.994Z,8.69
2024-02-09T01:02:08.558Z,8.69
2024-02-09T01:05:15.716Z,8.58
2024-02-09T01:08:19.678Z,8.61
2024-02-09T01:11:26.668Z,8.67
2024-02-09T01:14:48.272Z,8.59
2024-02-09T01:18:10.980Z,8.52
2024-02-09T01:21:32.362Z,8.50
2024-02-09T01:24:53.784Z,8.48
2024-02-09T01:28:15.381Z,8.41
2024-02-09T01:31:37.302Z,8.44
2024-02-09T01:34:59.193Z,8.48
2024-02-09T01:38:21.231Z,8.44
2024-02-09T01:41:42.907Z,8.44
2024-02-09T01:45:05.325Z,8.44
2024-02-09T01:48:26.753Z,8.47
2024-02-09T01:51:48.678Z,8.31
2024-02-09T01:55:10.191Z,8.28
2024-02-09T01:58:32.158Z,8.39
2024-02-09T02:01:55.241Z,8.31
2024-02-09T02:05:17.231Z,8.41
2024-02-09T02:08:39.384Z,8.43
2024-02-09T02:12:01.169Z,8.49
2024-02-09T02:15:23.798Z,8.31
2024-02-09T02:18:45.582Z,8.40
2024-02-09T02:22:30.301Z,8.38
2024-02-09T02:25:52.235Z,8.36
2024-02-09T02:29:14.874Z,8.32
2024-02-09T02:32:37.020Z,8.27
2024-02-09T02:35:58.889Z,8.21
2024-02-09T02:39:23.489Z,8.19
2024-02-09T02:42:26.349Z,8.23
2024-02-09T02:45:30.673Z,8.23
2024-02-09T02:48:52.322Z,8.25
2024-02-09T02:52:14.191Z,8.17
2024-02-09T02:55:36.997Z,8.21
2024-02-09T02:58:58.908Z,8.04
2024-02-09T03:02:20.211Z,8.13
2024-02-09T03:05:26.551Z,8.06
2024-02-09T03:08:46.070Z,8.02
2024-02-09T03:11:52.485Z,8.04
2024-02-09T03:14:55.885Z,8.01
2024-02-09T03:17:59.871Z,8.12
2024-02-09T03:21:05.417Z,8.12
2024-02-09T03:24:10.666Z,8.02
2024-02-09T03:27:14.268Z,7.96
2024-02-09T03:30:18.777Z,8.01
2024-02-09T03:33:22.872Z,7.98
2024-02-09T03:36:26.206Z,8.00
2024-02-09T03:39:29.472Z,7.94
2024-02-09T03:42:32.845Z,7.98
2024-02-09T03:45:35.715Z,7.91
2024-02-09T03:48:39.113Z,7.97
2024-02-09T03:51:42.083Z,7.96
2024-02-09T03:54:45.481Z,7.94
2024-02-09T03:57:48.536Z,7.87
2024-02-09T04:00:51.708Z,7.86
2024-02-09T04:03:54.964Z,7.96
2024-02-09T04:07:01.237Z,8.02
2024-02-09T04:10:26.075Z,7.99
2024-02-09T04:13:27.752Z,7.99
2024-02-09T04:16:31.061Z,7.89
2024-02-09T04:19:35.219Z,7.87
2024-02-09T04:22:39.482Z,7.91
2024-02-09T04:25:45.724Z,7.80
2024-02-09T04:28:48.956Z,7.83
2024-02-09T04:31:52.123Z,7.93
2024-02-09T04:34:55.220Z,7.86
2024-02-09T04:37:58.203Z,7.88
2024-02-09T04:41:01.334Z,7.86
2024-02-09T04:44:06.288Z,7.90
2024-02-09T04:47:09.734Z,7.95
2024-02-09T04:50:13.036Z,7.93
2024-02-09T04:53:17.425Z,7.95
2024-02-09T04:56:33.692Z,7.85
2024-02-09T04:59:36.818Z,7.88
2024-02-09T05:02:45.680Z,7.94
2024-02-09T05:05:49.158Z,7.97
2024-02-09T05:08:53.353Z,7.99
2024-02-09T05:12:00.891Z,7.96
2024-02-09T05:15:06.429Z,8.00
2024-02-09T05:18:09.714Z,8.03
2024-02-09T05:21:16.506Z,8.02
2024-02-09T05:24:20.446Z,8.02
2024-02-09T05:27:23.286Z,8.06
2024-02-09T05:30:30.855Z,8.19
2024-02-09T05:33:36.016Z,8.14
2024-02-09T05:36:39.443Z,8.20
2024-02-09T05:39:47.267Z,8.26
2024-02-09T05:42:50.436Z,8.36
2024-02-09T05:45:55.780Z,8.29
2024-02-09T05:49:02.048Z,8.27
2024-02-09T05:52:06.164Z,8.26
2024-02-09T05:55:10.528Z,8.30
2024-02-09T05:58:13.517Z,8.30
2024-02-09T06:01:16.905Z,8.30
2024-02-09T06:04:23.376Z,8.26
2024-02-09T06:07:29.649Z,8.32
2024-02-09T06:10:32.889Z,8.23
2024-02-09T06:13:35.921Z,8.32
2024-02-09T06:16:40.290Z,8.27
2024-02-09T06:19:43.341Z,8.32
2024-02-09T06:22:46.847Z,8.24
2024-02-09T06:25:50.775Z,8.26
2024-02-09T06:28:55.126Z,8.29
2024-02-09T06:31:58.532Z,8.40
2024-02-09T06:35:03.780Z,8.47
2024-02-09T06:38:08.644Z,8.62
2024-02-09T06:41:12.188Z,8.62
2024-02-09T06:44:14.983Z,8.72
2024-02-09T06:47:22.647Z,8.73
2024-02-09T06:50:26.228Z,8.85
2024-02-09T06:53:29.466Z,8.91
2024-02-09T06:56:33.004Z,9.03
2024-02-09T06:59:38.549Z,9.15
2024-02-09T07:02:46.177Z,9.19
2024-02-09T07:05:54.080Z,9.21
2024-02-09T07:08:57.518Z,9.26
2024-02-09T07:12:05.707Z,9.30
2024-02-09T07:15:09.035Z,9.36
2024-02-09T07:18:13.610Z,9.43
2024-02-09T07:21:18.619Z,9.41
2024-02-09T07:24:27.990Z,9.53
2024-02-09T07:27:31.101Z,9.55
2024-02-09T07:30:35.107Z,9.58
2024-02-09T07:33:39.105Z,9.58
2024-02-09T07:36:42.740Z,9.59
2024-02-09T07:39:47.333Z,9.59
2024-02-09T07:42:50.518Z,9.62
2024-02-09T07:45:53.756Z,9.69
2024-02-09T07:48:57.759Z,9.89
2024-02-09T07:52:01.149Z,9.90
2024-02-09T07:55:05.799Z,9.96
2024-02-09T07:58:09.783Z,10.07
2024-02-09T08:01:13.037Z,10.14
2024-02-09T08:04:16.344Z,10.21
2024-02-09T08:07:22.069Z,10.13
2024-02-09T08:10:25.598Z,10.20
2024-02-09T08:13:28.557Z,10.36
2024-02-09T08:16:33.166Z,10.50
2024-02-09T08:19:36.108Z,10.57
2024-02-09T08:22:45.715Z,10.49
2024-02-09T08:25:50.052Z,10.47
2024-02-09T08:28:56.935Z,10.53
2024-02-09T08:32:01.160Z,10.58
2024-02-09T08:35:06.430Z,10.65
2024-02-09T08:38:09.378Z,10.70
2024-02-09T08:41:13.657Z,10.48
2024-02-09T08:44:16.499Z,10.56
2024-02-09T08:47:19.660Z,10.51
2024-02-09T08:50:23.339Z,10.54
2024-02-09T08:53:27.580Z,10.46
2024-02-09T08:56:31.509Z,10.31
2024-02-09T08:59:36.530Z,10.28
2024-02-09T09:02:39.423Z,10.36
2024-02-09T09:05:43.637Z,10.36
2024-02-09T09:08:47.635Z,10.28
2024-02-09T09:11:50.838Z,10.31
2024-02-09T09:14:54.023Z,10.24
2024-02-09T09:17:57.580Z,10.29
2024-02-09T09:21:00.537Z,10.37
2024-02-09T09:24:03.936Z,10.51
2024-02-09T09:27:09.812Z,10.55
2024-02-09T09:30:13.181Z,10.70
2024-02-09T09:33:16.493Z,10.76
2024-02-09T09:36:23.716Z,10.85
2024-02-09T09:39:28.024Z,11.12
2024-02-09T09:42:31.800Z,11.21
2024-02-09T09:45:36.195Z,11.27
2024-02-09T09:48:42.612Z,11.37
2024-02-09T09:51:49.135Z,11.38
2024-02-09T09:54:53.632Z,11.35
2024-02-09T09:57:56.408Z,11.32
2024-02-09T10:01:00.498Z,11.57
2024-02-09T10:04:04.290Z,11.53
2024-02-09T10:07:09.703Z,11.63
2024-02-09T10:10:15.070Z,11.56
2024-02-09T10:13:18.037Z,11.63
2024-02-09T10:16:21.643Z,11.65
2024-02-09T10:19:24.557Z,11.76
2024-02-09T10:22:28.584Z,11.83
2024-02-09T10:25:33.108Z,11.84
2024-02-09T10:28:36.699Z,11.86
2024-02-09T10:31:41.163Z,11.93
2024-02-09T10:34:44.677Z,11.94
2024-02-09T10:37:49.727Z,11.99
2024-02-09T10:40:59.046Z,12.07
2024-02-09T10:44:03.839Z,12.08
2024-02-09T10:47:09.575Z,12.24
2024-02-09T10:50:13.632Z,12.38
2024-02-09T10:53:18.553Z,12.38
2024-02-09T10:56:27.392Z,12.42
2024-02-09T10:59:31.248Z,12.45
2024-02-09T11:02:36.793Z,12.50
2024-02-09T11:05:43.851Z,12.51
2024-02-09T11:08:49.637Z,12.55
2024-02-09T11:11:52.830Z,12.64
2024-02-09T11:14:59.204Z,12.61
2024-02-09T11:18:03.760Z,12.74
2024-02-09T11:21:09.381Z,12.84
2024-02-09T11:24:14.656Z,12.86
2024-02-09T11:27:22.062Z,12.88
2024-02-09T11:30:25.918Z,12.92
2024-02-09T11:33:31.359Z,13.03
2024-02-09T11:36:34.611Z,13.00
2024-02-09T11:39:38.803Z,13.10
2024-02-09T11:42:43.584Z,13.13
2024-02-09T11:45:48.614Z,13.28
2024-02-09T11:48:53.456Z,13.23
2024-02-09T11:52:06.183Z,13.25
2024-02-09T11:55:11.384Z,13.23
2024-02-09T11:58:16.962Z,13.26
2024-02-09T12:01:25.662Z,13.27
2024-02-09T12:04:29.605Z,13.37
2024-02-09T12:07:33.481Z,13.38
2024-02-09T12:10:38.616Z,13.42
2024-02-09T12:13:41.669Z,13.46
2024-02-09T12:16:46.869Z,13.36
2024-02-09T12:19:51.927Z,13.55
2024-02-09T12:22:58.114Z,13.63
2024-02-09T12:26:02.204Z,13.62
2024-02-09T12:29:13.406Z,13.70
2024-02-09T12:32:18.025Z,13.68
2024-02-09T12:35:29.528Z,13.59
2024-02-09T12:38:32.700Z,13.45
2024-02-09T12:41:42.345Z,13.62
2024-02-09T12:44:46.285Z,13.61
2024-02-09T12:47:49.236Z,13.46
2024-02-09T12:50:57.045Z,13.44
2024-02-09T12:54:00.773Z,13.48
2024-02-09T12:57:06.783Z,13.51
2024-02-09T13:00:12.528Z,13.46
2024-02-09T13:03:15.518Z,13.34
2024-02-09T13:06:20.222Z,13.40
2024-02-09T13:09:23.260Z,13.41
2024-02-09T13:12:29.526Z,13.35
2024-02-09T13:15:33.910Z,13.37
2024-02-09T13:18:38.792Z,13.31
2024-02-09T13:21:41.676Z,13.43
2024-02-09T13:24:48.832Z,13.52
2024-02-09T13:28:00.719Z,13.42
2024-02-09T13:31:10.648Z,13.28
2024-02-09T13:34:16.691Z,13.44
2024-02-09T13:37:20.197Z,13.34
2024-02-09T13:40:25.082Z,13.27
2024-02-09T13:43:29.392Z,13.28
2024-02-09T13:46:33.650Z,13.32
2024-02-09T13:49:36.933Z,13.37
2024-02-09T13:52:40.642Z,13.46
2024-02-09T13:55:44.523Z,13.47
2024-02-09T13:58:47.879Z,13.52
2024-02-09T14:01:51.283Z,13.63
2024-02-09T14:04:54.697Z,13.54
2024-02-09T14:07:58.048Z,13.59
2024-02-09T14:11:02.090Z,13.77
2024-02-09T14:14:04.978Z,13.97
2024-02-09T14:17:09.121Z,14.06
2024-02-09T14:20:12.469Z,14.19
2024-02-09T14:23:15.853Z,14.15
2024-02-09T14:26:20.806Z,14.21
2024-02-09T14:29:24.892Z,14.19
2024-02-09T14:32:27.924Z,14.25
2024-02-09T14:35:34.266Z,14.21
2024-02-09T14:38:38.377Z,14.17
2024-02-09T14:41:41.770Z,14.15
2024-02-09T14:44:49.879Z,14.15
2024-02-09T14:47:54.909Z,14.14
2024-02-09T14:51:02.756Z,14.19
2024-02-09T14:54:06.662Z,14.11
2024-02-09T14:57:12.382Z,14.11
2024-02-09T15:00:18.849Z,14.11
2024-02-09T15:03:24.246Z,13.87
2024-02-09T15:06:29.729Z,13.43
2024-02-09T15:09:34.188Z,13.39
2024-02-09T15:12:37.378Z,13.19
2024-02-09T15:15:44.301Z,13.13
2024-02-09T15:18:48.169Z,13.04
2024-02-09T15:21:55.023Z,12.91
2024-02-09T15:24:58.582Z,12.83
2024-02-09T15:28:02.540Z,12.81
2024-02-09T15:31:06.639Z,12.80
2024-02-09T15:34:11.374Z,12.69
2024-02-09T15:37:16.227Z,12.56
2024-02-09T15:40:30.911Z,12.62
2024-02-09T15:43:36.149Z,12.44
2024-02-09T15:46:39.274Z,12.41
2024-02-09T15:49:43.914Z,12.47
2024-02-09T15:52:49.275Z,12.35
2024-02-09T15:55:54.170Z,12.36
2024-02-09T15:58:56.782Z,12.27
2024-02-09T16:02:02.385Z,12.13
2024-02-09T16:05:06.598Z,12.24
2024-02-09T16:08:09.795Z,12.15
2024-02-09T16:11:13.713Z,12.23
2024-02-09T16:14:17.813Z,12.19
2024-02-09T16:17:22.322Z,12.07
2024-02-09T16:20:25.268Z,12.00
2024-02-09T16:23:28.627Z,11.96
2024-02-09T16:26:33.596Z,11.96
2024-02-09T16:29:37.457Z,11.92
2024-02-09T16:32:40.853Z,11.91
2024-02-09T16:35:46.663Z,11.91
2024-02-09T16:38:50.247Z,11.91
2024-02-09T16:41:54.392Z,11.95
2024-02-09T16:44:58.229Z,11.89
2024-02-09T16:48:02.002Z,11.94
2024-02-09T16:51:05.156Z,11.84
2024-02-09T16:54:08.410Z,11.85
2024-02-09T16:57:11.428Z,11.85
2024-02-09T17:00:18.698Z,11.95
2024-02-09T17:03:23.733Z,11.87
2024-02-09T17:06:28.656Z,11.80
2024-02-09T17:09:31.946Z,11.74
2024-02-09T17:12:35.169Z,11.86
2024-02-09T17:15:39.036Z,11.83
2024-02-09T17:18:43.551Z,11.80
2024-02-09T17:21:47.224Z,11.83
2024-02-09T17:24:50.346Z,11.83
2024-02-09T17:27:53.308Z,11.82
2024-02-09T17:30:56.483Z,11.79
2024-02-09T17:34:00.740Z,11.85
2024-02-09T17:37:05.140Z,11.73
2024-02-09T17:40:09.309Z,11.79
2024-02-09T17:43:14.218Z,11.83
2024-02-09T17:46:21.734Z,11.83
2024-02-09T17:49:28.100Z,11.83
2024-02-09T17:52:31.481Z,11.87
2024-02-09T17:55:34.353Z,11.80
2024-02-09T17:58:37.753Z,11.82
2024-02-09T18:01:40.824Z,11.85
2024-02-09T18:04:45.023Z,11.80
2024-02-09T18:07:48.101Z,11.91
2024-02-09T18:10:51.679Z,11.85
2024-02-09T18:13:54.968Z,11.82
2024-02-09T18:16:58.160Z,11.85
2024-02-09T18:20:01.156Z,11.74
2024-02-09T18:23:04.744Z,11.80
2024-02-09T18:26:07.649Z,11.84
2024-02-09T18:29:10.813Z,11.85
2024-02-09T18:32:14.197Z,11.82
2024-02-09T18:35:19.552Z,11.90
2024-02-09T18:38:22.536Z,11.93
2024-02-09T18:41:26.005Z,11.90
2024-02-09T18:44:32.644Z,11.93
2024-02-09T18:47:38.462Z,11.94
2024-02-09T18:50:46.810Z,11.96
2024-02-09T18:53:50.822Z,11.97
2024-02-09T18:56:54.121Z,11.93
2024-02-09T18:59:57.373Z,12.02
2024-02-09T19:03:00.809Z,11.97
2024-02-09T19:06:04.209Z,12.04
2024-02-09T19:09:07.278Z,11.95
2024-02-09T19:12:11.353Z,12.00
2024-02-09T19:15:16.486Z,12.06
2024-02-09T19:18:20.326Z,12.05
2024-02-09T19:21:32.446Z,12.01
2024-02-09T19:24:38.078Z,11.99
2024-02-09T19:27:41.396Z,11.91
2024-02-09T19:30:45.237Z,11.96
2024-02-09T19:33:49.575Z,11.88
2024-02-09T19:36:54.193Z,11.95
2024-02-09T19:39:58.150Z,11.92
2024-02-09T19:43:01.814Z,11.88
2024-02-09T19:46:05.703Z,11.88
2024-02-09T19:49:09.838Z,11.82
2024-02-09T19:52:13.230Z,11.78
2024-02-09T19:55:18.134Z,11.80
2024-02-09T19:58:21.340Z,11.73
2024-02-09T20:01:27.156Z,11.85
2024-02-09T20:04:33.224Z,11.85
2024-02-09T20:07:39.478Z,11.93
2024-02-09T20:10:42.932Z,11.98
2024-02-09T20:13:46.343Z,11.96
2024-02-09T20:16:51.976Z,11.99
2024-02-09T20:19:55.385Z,11.94
2024-02-09T20:23:00.725Z,11.95
2024-02-09T20:26:03.764Z,11.98
2024-02-09T20:29:09.860Z,11.95
2024-02-09T20:32:21.581Z,11.99
2024-02-09T20:35:27.434Z,12.02
2024-02-09T20:38:32.946Z,11.95
2024-02-09T20:41:38.518Z,11.94
2024-02-09T20:44:44.194Z,11.94
2024-02-09T20:47:52.399Z,11.99
2024-02-09T20:50:56.617Z,12.09
2024-02-09T20:54:04.383Z,12.04
2024-02-09T20:57:09.723Z,12.02
2024-02-09T21:00:20.266Z,12.03
2024-02-09T21:03:23.667Z,12.08
2024-02-09T21:06:30.214Z,12.04
2024-02-09T21:09:33.116Z,12.10
2024-02-09T21:12:36.752Z,12.09
2024-02-09T21:15:43.179Z,12.11
2024-02-09T21:18:46.539Z,12.06
2024-02-09T21:21:51.760Z,12.01
2024-02-09T21:24:54.972Z,11.96
2024-02-09T21:27:58.783Z,11.91
2024-02-09T21:31:03.542Z,11.86
2024-02-09T21:34:07.319Z,11.89
2024-02-09T21:37:11.283Z,11.93
2024-02-09T21:40:14.828Z,11.85
2024-02-09T21:43:23.027Z,11.98
2024-02-09T21:46:30.011Z,11.80
2024-02-09T21:49:39.002Z,11.88
2024-02-09T21:52:42.840Z,11.89
2024-02-09T21:55:46.599Z,11.76
2024-02-09T21:58:52.812Z,11.83
2024-02-09T22:01:56.184Z,11.72
2024-02-09T22:04:59.688Z,11.82
2024-02-09T22:08:02.831Z,11.78
2024-02-09T22:11:08.203Z,11.71
2024-02-09T22:14:13.888Z,11.66
2024-02-09T22:17:17.770Z,11.63
2024-02-09T22:20:21.522Z,11.46
2024-02-09T22:23:24.710Z,11.44
2024-02-09T22:26:27.903Z,11.42
2024-02-09T22:29:31.006Z,11.46
2024-02-09T22:32:34.054Z,11.26
2024-02-09T22:35:37.547Z,11.34
2024-02-09T22:38:43.125Z,11.29
2024-02-09T22:41:49.686Z,11.29
2024-02-09T22:44:53.610Z,11.11
2024-02-09T22:47:58.743Z,11.05
2024-02-09T22:51:01.897Z,11.05
2024-02-09T22:54:09.707Z,11.00
2024-02-09T22:57:16.464Z,10.94
2024-02-09T23:00:25.423Z,10.89
2024-02-09T23:03:30.957Z,10.90
2024-02-09T23:06:34.245Z,10.92
2024-02-09T23:09:40.668Z,10.88
2024-02-09T23:12:43.976Z,10.85
2024-02-09T23:15:49.096Z,10.87
2024-02-09T23:19:00.672Z,10.90
2024-02-09T23:22:03.977Z,10.92
2024-02-09T23:25:07.493Z,11.01
2024-02-09T23:28:11.867Z,10.94
2024-02-09T23:31:15.205Z,11.06
2024-02-09T23:34:21.141Z,11.12
2024-02-09T23:37:24.920Z,11.12
2024-02-09T23:40:29.275Z,11.03
2024-02-09T23:43:33.916Z,11.05
2024-02-09T23:46:36.991Z,11.01
2024-02-09T23:49:41.310Z,11.04
2024-02-09T23:52:44.234Z,10.99
2024-02-09T23:55:47.489Z,10.92
2024-02-09T23:58:53.762Z,10.78
